createdAt,value
2018-01-14T00:00:40.889Z,102044.56
2018-01-14T00:03:09.214Z,102036.86
2018-01-14T00:05:37.560Z,102023.72
2018-01-14T00:08:05.889Z,102031.69
2018-01-14T00:10:34.233Z,102027.34
2018-01-14T00:13:02.562Z,102026.96
2018-01-14T00:15:30.909Z,102022.94
2018-01-14T00:17:59.243Z,102028.66
2018-01-14T00:20:27.588Z,102021.14
2018-01-14T00:22:55.913Z,102016.35
2018-01-14T00:25:24.261Z,102019.27
2018-01-14T00:27:52.585Z,102017.20
2018-01-14T00:30:20.946Z,102014.70
2018-01-14T00:32:49.269Z,102015.12
2018-01-14T00:35:17.614Z,102010.22
2018-01-14T00:37:45.942Z,102004.98
2018-01-14T00:40:14.286Z,102007.66
2018-01-14T00:42:42.614Z,102007.70
2018-01-14T00:45:10.964Z,102015.56
2018-01-14T00:47:39.291Z,102014.18
2018-01-14T00:50:07.642Z,102013.58
2018-01-14T00:52:35.985Z,102010.98
2018-01-14T00:55:04.313Z,102009.27
2018-01-14T00:57:32.662Z,102005.51
2018-01-14T01:00:00.990Z,102000.62
2018-01-14T01:02:29.337Z,101995.45
2018-01-14T01:04:57.661Z,102003.67
2018-01-14T01:07:26.012Z,102002.91
2018-01-14T01:09:54.337Z,101989.50
2018-01-14T01:12:22.681Z,101990.73
2018-01-14T01:14:51.011Z,101996.39
2018-01-14T01:17:19.369Z,101996.85
2018-01-14T01:19:47.696Z,101989.95
2018-01-14T01:22:16.051Z,101991.69
2018-01-14T01:24:44.382Z,101990.64
2018-01-14T01:27:12.731Z,101993.52
2018-01-14T01:29:41.070Z,101983.66
2018-01-14T01:32:09.437Z,101982.41
2018-01-14T01:34:37.762Z,101979.75
2018-01-14T01:37:06.108Z,101987.08
2018-01-14T01:39:34.443Z,101987.88
2018-01-14T01:42:02.790Z,101981.02
2018-01-14T01:44:31.117Z,101993.52
2018-01-14T01:46:59.601Z,101990.59
2018-01-14T01:49:27.937Z,101991.11
2018-01-14T01:51:56.286Z,101992.36
2018-01-14T01:54:24.634Z,101997.52
2018-01-14T01:56:52.980Z,102000.83
2018-01-14T01:59:21.318Z,101990.23
2018-01-14T02:01:49.674Z,101986.63
2018-01-14T02:04:18.003Z,101991.86
2018-01-14T02:06:46.368Z,101998.41
2018-01-14T02:09:14.706Z,101987.88
2018-01-14T02:11:43.904Z,101996.33
2018-01-14T02:14:12.237Z,101991.84
2018-01-14T02:16:40.589Z,101991.95
2018-01-14T02:19:08.918Z,101987.55
2018-01-14T02:21:37.269Z,101984.48
2018-01-14T02:24:05.601Z,101978.38
2018-01-14T02:26:33.957Z,101971.03
2018-01-14T02:29:02.292Z,101983.16
2018-01-14T02:31:30.820Z,101974.34
2018-01-14T02:33:59.145Z,101981.74
2018-01-14T02:36:27.505Z,101969.69
2018-01-14T02:38:55.841Z,101977.94
2018-01-14T02:41:24.192Z,101981.44
2018-01-14T02:43:52.529Z,101972.74
2018-01-14T02:46:21.821Z,101976.17
2018-01-14T02:48:50.145Z,101970.09
2018-01-14T02:51:18.545Z,101968.27
2018-01-14T02:53:46.884Z,101970.40
2018-01-14T02:56:16.130Z,101970.03
2018-01-14T02:58:44.481Z,101972.30
2018-01-14T03:01:12.816Z,101961.38
2018-01-14T03:03:41.167Z,101961.34
2018-01-14T03:06:09.497Z,101972.19
2018-01-14T03:08:37.857Z,101967.80
2018-01-14T03:11:06.185Z,101970.07
2018-01-14T03:13:34.534Z,101965.73
2018-01-14T03:16:02.857Z,101963.09
2018-01-14T03:18:31.205Z,101963.07
2018-01-14T03:20:59.538Z,101957.06
2018-01-14T03:23:27.873Z,101955.70
2018-01-14T03:25:57.161Z,101957.03
2018-01-14T03:28:25.504Z,101957.59
2018-01-14T03:30:53.830Z,101953.29
2018-01-14T03:33:22.174Z,101948.00
2018-01-14T03:35:50.501Z,101943.23
2018-01-14T03:38:18.850Z,101949.77
2018-01-14T03:40:47.181Z,101947.66
2018-01-14T03:43:15.521Z,101945.41
2018-01-14T03:45:43.849Z,101945.92
2018-01-14T03:48:12.202Z,101950.60
2018-01-14T03:50:40.530Z,101954.97
2018-01-14T03:53:08.878Z,101955.87
2018-01-14T03:55:37.197Z,101953.60
2018-01-14T03:58:05.548Z,101953.22
2018-01-14T04:00:33.873Z,101952.42
2018-01-14T04:03:02.217Z,101950.94
2018-01-14T04:05:31.434Z,101948.78
2018-01-14T04:07:59.788Z,101943.88
2018-01-14T04:10:28.114Z,101938.57
2018-01-14T04:12:56.452Z,101947.34
2018-01-14T04:15:24.774Z,101946.03
2018-01-14T04:17:53.117Z,101942.53
2018-01-14T04:20:21.441Z,101942.05
2018-01-14T04:25:44.833Z,101947.30
2018-01-14T04:28:13.237Z,101945.55
2018-01-14T04:30:41.501Z,101941.48
2018-01-14T04:33:09.846Z,101944.61
2018-01-14T04:35:38.174Z,101939.05
2018-01-14T04:38:06.512Z,101943.88
2018-01-14T04:40:34.837Z,101939.01
2018-01-14T04:43:03.193Z,101936.89
2018-01-14T04:45:31.521Z,101931.66
2018-01-14T04:47:59.864Z,101932.09
2018-01-14T04:50:28.186Z,101927.28
2018-01-14T04:52:56.528Z,101937.38
2018-01-14T04:55:24.853Z,101938.14
2018-01-14T04:57:53.196Z,101933.80
2018-01-14T05:00:21.517Z,101943.88
2018-01-14T05:02:49.861Z,101940.86
2018-01-14T05:05:18.872Z,101937.26
2018-01-14T05:07:47.212Z,101929.41
2018-01-14T05:10:15.533Z,101942.91
2018-01-14T05:12:43.882Z,101947.30
2018-01-14T05:15:12.210Z,101948.09
2018-01-14T05:17:40.605Z,101953.32
2018-01-14T05:20:08.925Z,101952.41
2018-01-14T05:22:37.249Z,101955.87
2018-01-14T05:25:05.696Z,101951.06
2018-01-14T05:27:34.070Z,101955.28
2018-01-14T05:30:02.365Z,101950.14
2018-01-14T05:32:30.689Z,101950.05
2018-01-14T05:34:59.033Z,101960.53
2018-01-14T05:37:27.361Z,101959.78
2018-01-14T05:39:55.697Z,101949.33
2018-01-14T05:42:24.023Z,101948.83
2018-01-14T05:44:53.310Z,101949.36
2018-01-14T05:47:21.633Z,101946.59
2018-01-14T05:49:49.982Z,101942.27
2018-01-14T05:52:18.305Z,101942.75
2018-01-14T05:54:46.648Z,101937.55
2018-01-14T05:57:14.973Z,101941.87
2018-01-14T05:59:43.312Z,101946.35
2018-01-14T06:02:11.642Z,101944.98
2018-01-14T06:04:40.022Z,101948.85
2018-01-14T06:07:08.345Z,101952.77
2018-01-14T06:09:36.692Z,101942.66
2018-01-14T06:12:05.017Z,101953.16
2018-01-14T06:14:33.364Z,101954.02
2018-01-14T06:17:01.681Z,101953.01
2018-01-14T06:19:30.026Z,101948.83
2018-01-14T06:21:58.349Z,101954.00
2018-01-14T06:24:26.693Z,101952.69
2018-01-14T06:26:55.016Z,101958.68
2018-01-14T06:29:23.366Z,101949.66
2018-01-14T06:31:51.686Z,101947.84
2018-01-14T06:34:20.034Z,101945.71
2018-01-14T06:36:48.353Z,101941.75
2018-01-14T06:39:16.693Z,101944.39
2018-01-14T06:41:45.017Z,101942.62
2018-01-14T06:44:13.362Z,101934.78
2018-01-14T06:46:41.681Z,101939.16
2018-01-14T06:49:10.025Z,101937.83
2018-01-14T06:51:38.348Z,101940.10
2018-01-14T06:54:06.698Z,101930.97
2018-01-14T06:56:35.018Z,101940.12
2018-01-14T06:59:03.360Z,101934.51
2018-01-14T07:01:31.681Z,101932.80
2018-01-14T07:04:00.054Z,101936.56
2018-01-14T07:06:28.365Z,101950.09
2018-01-14T07:08:56.708Z,101945.85
2018-01-14T07:11:25.033Z,101950.64
2018-01-14T07:13:53.373Z,101950.26
2018-01-14T07:16:21.694Z,101941.56
2018-01-14T07:18:50.037Z,101944.56
2018-01-14T07:21:18.361Z,101941.11
2018-01-14T07:23:46.690Z,101947.44
2018-01-14T07:26:15.034Z,101945.31
2018-01-14T07:28:43.353Z,101941.41
2018-01-14T07:31:11.702Z,101932.69
2018-01-14T07:33:40.025Z,101937.63
2018-01-14T07:36:08.372Z,101937.00
2018-01-14T07:38:36.693Z,101934.94
2018-01-14T07:41:05.041Z,101932.30
2018-01-14T07:43:33.362Z,101929.14
2018-01-14T07:46:02.643Z,101929.28
2018-01-14T07:48:30.918Z,101927.22
2018-01-14T07:50:59.261Z,101932.38
2018-01-14T07:53:27.580Z,101931.11
2018-01-14T07:55:55.925Z,101944.20
2018-01-14T07:58:24.250Z,101952.57
2018-01-14T08:00:52.596Z,101947.34
2018-01-14T08:03:20.917Z,101956.14
2018-01-14T08:05:49.261Z,101955.22
2018-01-14T08:08:17.580Z,101957.39
2018-01-14T08:10:45.929Z,101957.91
2018-01-14T08:13:14.249Z,101956.83
2018-01-14T08:15:42.588Z,101961.53
2018-01-14T08:18:10.913Z,101963.78
2018-01-14T08:20:39.259Z,101954.52
2018-01-14T08:23:07.584Z,101957.26
2018-01-14T08:25:35.948Z,101967.52
2018-01-14T08:28:04.365Z,101967.01
2018-01-14T08:30:32.724Z,101962.64
2018-01-14T08:33:01.054Z,101973.70
2018-01-14T08:35:29.410Z,101968.33
2018-01-14T08:37:57.749Z,101975.34
2018-01-14T08:40:26.678Z,101965.13
2018-01-14T08:42:55.117Z,101981.14
2018-01-14T08:45:23.481Z,101978.64
2018-01-14T08:47:51.821Z,101962.30
2018-01-14T08:50:20.185Z,101969.72
2018-01-14T08:52:48.514Z,101959.22
2018-01-14T08:55:16.861Z,101962.64
2018-01-14T08:57:45.307Z,101958.41
2018-01-14T09:00:14.329Z,101967.72
2018-01-14T09:02:42.678Z,101973.19
2018-01-14T09:05:11.025Z,101974.66
2018-01-14T09:07:39.353Z,101973.45
2018-01-14T09:10:07.718Z,101964.77
2018-01-14T09:12:36.041Z,101965.36
2018-01-14T09:15:04.390Z,101967.38
2018-01-14T09:17:32.717Z,101960.88
2018-01-14T09:20:02.130Z,101960.01
2018-01-14T09:22:30.438Z,101969.20
2018-01-14T09:24:59.659Z,101973.13
2018-01-14T09:27:28.632Z,101962.28
2018-01-14T09:29:56.985Z,101961.69
2018-01-14T09:32:25.342Z,101959.61
2018-01-14T09:34:53.674Z,101957.80
2018-01-14T09:37:22.022Z,101956.88
2018-01-14T09:39:50.380Z,101961.63
2018-01-14T09:42:18.710Z,101951.91
2018-01-14T09:44:47.039Z,101951.09
2018-01-14T09:47:15.401Z,101942.27
2018-01-14T09:49:43.733Z,101947.93
2018-01-14T09:52:12.093Z,101942.27
2018-01-14T09:54:40.421Z,101948.52
2018-01-14T09:57:08.765Z,101948.91
2018-01-14T09:59:37.113Z,101939.55
2018-01-14T10:02:05.490Z,101933.85
2018-01-14T10:04:33.872Z,101933.52
2018-01-14T10:07:02.241Z,101928.69
2018-01-14T10:09:30.595Z,101924.61
2018-01-14T10:11:58.963Z,101927.34
2018-01-14T10:14:27.580Z,101924.23
2018-01-14T10:16:56.420Z,101922.64
2018-01-14T10:19:25.085Z,101923.09
2018-01-14T10:21:53.741Z,101921.25
2018-01-14T10:24:23.179Z,101915.58
2018-01-14T10:26:51.921Z,101921.60
2018-01-14T10:29:20.621Z,101920.69
2018-01-14T10:31:50.123Z,101917.54
2018-01-14T10:34:18.942Z,101924.95
2018-01-14T10:36:47.649Z,101911.90
2018-01-14T10:39:16.189Z,101923.62
2018-01-14T10:41:44.868Z,101909.73
2018-01-14T10:44:13.545Z,101913.61
2018-01-14T10:46:42.420Z,101907.53
2018-01-14T10:49:11.117Z,101899.95
2018-01-14T10:51:39.850Z,101900.87
2018-01-14T10:54:09.987Z,101891.80
2018-01-14T10:56:38.997Z,101891.78
2018-01-14T10:59:08.342Z,101884.45
2018-01-14T11:01:36.995Z,101885.30
2018-01-14T11:04:05.707Z,101884.93
2018-01-14T11:06:34.226Z,101872.75
2018-01-14T11:09:04.699Z,101866.67
2018-01-14T11:11:30.905Z,101858.73
2018-01-14T11:13:59.232Z,101862.80
2018-01-14T11:16:27.581Z,101853.68
2018-01-14T11:18:55.918Z,101855.73
2018-01-14T11:21:24.375Z,101851.86
2018-01-14T11:23:52.751Z,101838.42
2018-01-14T11:26:21.101Z,101841.88
2018-01-14T11:28:52.295Z,101838.00
2018-01-14T11:31:20.918Z,101843.78
2018-01-14T11:33:49.738Z,101848.63
2018-01-14T11:36:18.489Z,101842.56
2018-01-14T11:38:47.121Z,101833.73
2018-01-14T11:41:15.866Z,101825.55
2018-01-14T11:43:44.550Z,101832.15
2018-01-14T11:46:14.324Z,101838.70
2018-01-14T11:48:43.033Z,101840.45
2018-01-14T11:51:11.731Z,101837.34
2018-01-14T11:53:40.450Z,101839.08
2018-01-14T11:56:10.065Z,101836.50
2018-01-14T11:58:38.731Z,101840.48
2018-01-14T12:01:08.187Z,101837.41
2018-01-14T12:03:37.673Z,101830.02
2018-01-14T12:06:07.808Z,101824.88
2018-01-14T12:08:37.292Z,101830.09
2018-01-14T12:11:07.823Z,101821.84
2018-01-14T12:13:37.813Z,101819.63
2018-01-14T12:16:08.639Z,101814.33
2018-01-14T12:18:39.792Z,101811.74
2018-01-14T12:21:09.087Z,101808.70
2018-01-14T12:23:37.783Z,101805.73
2018-01-14T12:26:06.554Z,101806.12
2018-01-14T12:28:35.333Z,101793.50
2018-01-14T12:31:03.975Z,101794.39
2018-01-14T12:33:36.584Z,101799.69
2018-01-14T12:36:05.245Z,101789.37
2018-01-14T12:38:33.982Z,101788.55
2018-01-14T12:41:02.855Z,101788.63
2018-01-14T12:43:31.687Z,101782.94
2018-01-14T12:46:00.255Z,101786.44
2018-01-14T12:48:28.877Z,101782.08
2018-01-14T12:50:57.552Z,101783.39
2018-01-14T12:53:26.325Z,101787.33
2018-01-14T12:55:54.936Z,101780.77
2018-01-14T12:58:23.276Z,101779.89
2018-01-14T13:00:51.605Z,101775.07
2018-01-14T13:03:19.953Z,101766.28
2018-01-14T13:05:48.286Z,101767.62
2018-01-14T13:08:16.640Z,101759.72
2018-01-14T13:10:44.969Z,101750.11
2018-01-14T13:13:13.334Z,101758.00
2018-01-14T13:15:41.665Z,101752.76
2018-01-14T13:18:10.014Z,101752.72
2018-01-14T13:20:38.354Z,101747.05
2018-01-14T13:23:06.706Z,101737.86
2018-01-14T13:25:35.025Z,101747.48
2018-01-14T13:28:03.372Z,101746.61
2018-01-14T13:30:31.701Z,101755.81
2018-01-14T13:33:00.271Z,101753.20
2018-01-14T13:35:28.602Z,101756.70
2018-01-14T13:37:56.954Z,101760.20
2018-01-14T13:40:25.285Z,101759.30
2018-01-14T13:42:53.685Z,101760.56
2018-01-14T13:45:22.017Z,101749.66
2018-01-14T13:47:50.366Z,101750.50
2018-01-14T13:50:18.693Z,101749.63
2018-01-14T13:52:47.974Z,101749.15
2018-01-14T13:55:16.293Z,101753.15
2018-01-14T13:57:44.641Z,101754.42
2018-01-14T14:00:13.005Z,101757.48
2018-01-14T14:02:41.685Z,101750.95
2018-01-14T14:05:10.003Z,101758.73
2018-01-14T14:07:38.334Z,101745.23
2018-01-14T14:10:06.682Z,101756.14
2018-01-14T14:12:35.485Z,101754.88
2018-01-14T14:15:03.864Z,101756.59
2018-01-14T14:17:32.173Z,101754.82
2018-01-14T14:20:00.531Z,101758.37
2018-01-14T14:22:28.860Z,101750.90
2018-01-14T14:24:57.210Z,101765.78
2018-01-14T14:27:25.561Z,101765.75
2018-01-14T14:29:53.913Z,101770.98
2018-01-14T14:32:22.281Z,101756.06
2018-01-14T14:34:50.635Z,101761.36
2018-01-14T14:37:18.962Z,101760.06
2018-01-14T14:39:47.319Z,101756.13
2018-01-14T14:42:15.641Z,101759.20
2018-01-14T14:44:43.990Z,101751.75
2018-01-14T14:47:12.322Z,101749.55
2018-01-14T14:49:40.674Z,101743.03
2018-01-14T14:52:09.843Z,101740.00
2018-01-14T14:54:38.202Z,101735.20
2018-01-14T14:57:06.533Z,101728.20
2018-01-14T14:59:34.883Z,101718.62
2018-01-14T15:02:03.218Z,101721.22
2018-01-14T15:04:31.565Z,101724.28
2018-01-14T15:06:59.901Z,101724.72
2018-01-14T15:09:28.379Z,101719.92
2018-01-14T15:11:57.068Z,101718.59
2018-01-14T15:14:25.827Z,101712.05
2018-01-14T15:16:54.313Z,101707.20
2018-01-14T15:19:22.730Z,101712.42
2018-01-14T15:21:51.061Z,101710.58
2018-01-14T15:24:19.424Z,101707.92
2018-01-14T15:26:47.762Z,101707.04
2018-01-14T15:29:16.141Z,101705.70
2018-01-14T15:31:44.523Z,101698.28
2018-01-14T15:34:12.865Z,101698.72
2018-01-14T15:36:41.192Z,101700.39
2018-01-14T15:39:09.549Z,101705.53
2018-01-14T15:41:37.883Z,101699.52
2018-01-14T15:44:06.274Z,101712.59
2018-01-14T15:46:34.635Z,101719.58
2018-01-14T15:49:03.969Z,101725.61
2018-01-14T15:51:32.301Z,101723.80
2018-01-14T15:54:00.653Z,101727.63
2018-01-14T15:56:28.989Z,101716.72
2018-01-14T15:58:57.313Z,101718.08
2018-01-14T16:01:25.665Z,101719.83
2018-01-14T16:03:54.006Z,101727.61
2018-01-14T16:06:22.361Z,101730.59
2018-01-14T16:08:50.699Z,101730.51
2018-01-14T16:11:19.546Z,101736.19
2018-01-14T16:13:47.879Z,101732.16
2018-01-14T16:16:16.224Z,101732.52
2018-01-14T16:18:44.557Z,101737.30
2018-01-14T16:21:12.905Z,101745.20
2018-01-14T16:23:41.240Z,101741.38
2018-01-14T16:26:09.595Z,101739.64
2018-01-14T16:28:37.921Z,101736.98
2018-01-14T16:31:06.277Z,101742.23
2018-01-14T16:33:34.610Z,101742.16
2018-01-14T16:36:02.957Z,101741.83
2018-01-14T16:38:31.301Z,101743.61
2018-01-14T16:40:59.660Z,101744.73
2018-01-14T16:43:27.991Z,101752.52
2018-01-14T16:45:56.333Z,101745.59
2018-01-14T16:48:24.665Z,101752.55
2018-01-14T16:50:53.893Z,101745.94
2018-01-14T16:53:22.308Z,101745.11
2018-01-14T16:55:50.577Z,101744.39
2018-01-14T16:58:18.909Z,101743.15
2018-01-14T17:00:47.257Z,101749.70
2018-01-14T17:03:15.585Z,101743.13
2018-01-14T17:05:43.934Z,101749.73
2018-01-14T17:08:12.265Z,101748.16
2018-01-14T17:10:41.409Z,101749.02
2018-01-14T17:13:09.746Z,101736.83
2018-01-14T17:15:38.202Z,101729.48
2018-01-14T17:18:06.982Z,101724.63
2018-01-14T17:20:35.826Z,101719.77
2018-01-14T17:23:05.161Z,101722.38
2018-01-14T17:25:33.997Z,101721.49
2018-01-14T17:28:02.451Z,101717.14
2018-01-14T17:30:31.860Z,101714.56
2018-01-14T17:33:01.982Z,101709.30
2018-01-14T17:35:31.408Z,101711.87
2018-01-14T17:38:00.546Z,101709.27
2018-01-14T17:40:29.373Z,101713.56
2018-01-14T17:42:57.686Z,101720.09
2018-01-14T17:45:26.048Z,101714.44
2018-01-14T17:47:54.374Z,101705.70
2018-01-14T17:50:22.741Z,101706.59
2018-01-14T17:52:51.090Z,101706.62
2018-01-14T17:55:20.200Z,101698.28
2018-01-14T17:57:48.525Z,101697.91
2018-01-14T18:00:16.882Z,101704.51
2018-01-14T18:02:45.219Z,101698.88
2018-01-14T18:05:13.571Z,101700.15
2018-01-14T18:07:41.905Z,101706.27
2018-01-14T18:10:10.241Z,101687.97
2018-01-14T18:12:38.581Z,101683.63
2018-01-14T18:15:06.969Z,101690.58
2018-01-14T18:17:35.327Z,101691.41
2018-01-14T18:20:03.657Z,101689.61
2018-01-14T18:22:32.006Z,101684.87
2018-01-14T18:25:00.333Z,101682.64
2018-01-14T18:27:28.706Z,101678.31
2018-01-14T18:29:57.065Z,101680.55
2018-01-14T18:32:25.404Z,101687.00
2018-01-14T18:34:53.734Z,101687.00
2018-01-14T18:37:22.358Z,101681.77
2018-01-14T18:39:50.715Z,101668.25
2018-01-14T18:42:19.061Z,101667.02
2018-01-14T18:44:47.398Z,101661.33
2018-01-14T18:47:15.751Z,101661.81
2018-01-14T18:49:44.088Z,101655.64
2018-01-14T18:52:12.438Z,101646.07
2018-01-14T18:54:40.785Z,101655.22
2018-01-14T18:57:09.141Z,101658.77
2018-01-14T18:59:37.473Z,101671.84
2018-01-14T19:02:05.957Z,101663.55
2018-01-14T19:04:34.297Z,101667.48
2018-01-14T19:07:02.668Z,101671.39
2018-01-14T19:09:31.514Z,101674.86
2018-01-14T19:11:59.889Z,101679.62
2018-01-14T19:14:28.198Z,101691.41
2018-01-14T19:16:56.550Z,101678.33
2018-01-14T19:19:24.881Z,101687.48
2018-01-14T19:21:53.236Z,101675.77
2018-01-14T19:24:21.561Z,101680.06
2018-01-14T19:26:49.909Z,101679.20
2018-01-14T19:29:19.248Z,101678.80
2018-01-14T19:31:47.607Z,101683.61
2018-01-14T19:34:15.933Z,101679.28
2018-01-14T19:36:44.289Z,101673.58
2018-01-14T19:39:12.613Z,101670.50
2018-01-14T19:41:40.966Z,101670.08
2018-01-14T19:44:09.317Z,101658.28
2018-01-14T19:46:37.666Z,101652.16
2018-01-14T19:49:06.369Z,101637.23
2018-01-14T19:51:34.715Z,101635.08
2018-01-14T19:54:03.590Z,101624.58
2018-01-14T19:56:33.619Z,101629.38
2018-01-14T19:59:02.422Z,101627.17
2018-01-14T20:01:31.367Z,101633.30
2018-01-14T20:03:59.893Z,101617.16
2018-01-14T20:06:28.261Z,101618.92
2018-01-14T20:08:56.589Z,101613.66
2018-01-14T20:11:25.450Z,101611.95
2018-01-14T20:13:53.780Z,101608.42
2018-01-14T20:16:23.030Z,101603.63
2018-01-14T20:18:51.381Z,101609.28
2018-01-14T20:21:19.733Z,101610.14
2018-01-14T20:23:48.082Z,101614.00
2018-01-14T20:26:17.345Z,101617.55
2018-01-14T20:28:45.698Z,101613.96
2018-01-14T20:31:14.030Z,101615.77
2018-01-14T20:33:42.383Z,101624.49
2018-01-14T20:36:10.716Z,101627.53
2018-01-14T20:38:39.122Z,101626.59
2018-01-14T20:41:07.401Z,101626.97
2018-01-14T20:43:35.749Z,101624.02
2018-01-14T20:46:04.081Z,101621.86
2018-01-14T20:48:32.433Z,101614.87
2018-01-14T20:51:00.766Z,101609.59
2018-01-14T20:53:29.113Z,101604.84
2018-01-14T20:55:57.455Z,101604.83
2018-01-14T20:58:25.809Z,101597.83
2018-01-14T21:00:54.136Z,101604.02
2018-01-14T21:03:22.492Z,101604.00
2018-01-14T21:05:50.821Z,101601.34
2018-01-14T21:08:19.181Z,101603.13
2018-01-14T21:10:47.517Z,101600.48
2018-01-14T21:13:15.869Z,101587.83
2018-01-14T21:15:44.197Z,101590.43
2018-01-14T21:18:12.557Z,101588.71
2018-01-14T21:20:40.888Z,101586.87
2018-01-14T21:23:09.230Z,101585.56
2018-01-14T21:25:37.754Z,101579.86
2018-01-14T21:28:05.996Z,101572.48
2018-01-14T21:30:35.020Z,101571.63
2018-01-14T21:33:03.382Z,101565.55
2018-01-14T21:35:31.702Z,101569.47
2018-01-14T21:38:00.054Z,101565.48
2018-01-14T21:40:28.484Z,101565.06
2018-01-14T21:42:56.857Z,101559.80
2018-01-14T21:45:25.205Z,101559.88
2018-01-14T21:47:53.549Z,101557.72
2018-01-14T21:50:21.879Z,101561.23
2018-01-14T21:52:50.217Z,101559.10
2018-01-14T21:55:18.541Z,101552.52
2018-01-14T21:57:46.885Z,101552.98
2018-01-14T22:00:15.209Z,101545.98
2018-01-14T22:02:43.558Z,101542.09
2018-01-14T22:05:11.886Z,101541.63
2018-01-14T22:07:40.229Z,101539.42
2018-01-14T22:10:08.567Z,101535.47
2018-01-14T22:12:36.909Z,101540.75
2018-01-14T22:15:05.235Z,101539.91
2018-01-14T22:17:33.561Z,101531.59
2018-01-14T22:20:01.901Z,101531.64
2018-01-14T22:22:30.226Z,101527.25
2018-01-14T22:24:58.569Z,101516.33
2018-01-14T22:27:26.894Z,101505.42
2018-01-14T22:29:55.233Z,101504.95
2018-01-14T22:32:23.562Z,101496.25
2018-01-14T22:34:51.901Z,101492.33
2018-01-14T22:37:20.218Z,101488.39
2018-01-14T22:39:48.564Z,101486.64
2018-01-14T22:42:16.881Z,101483.14
2018-01-14T22:44:45.226Z,101480.95
2018-01-14T22:47:13.541Z,101478.78
2018-01-14T22:49:41.886Z,101481.31
2018-01-14T22:52:10.209Z,101474.87
2018-01-14T22:54:38.552Z,101476.17
2018-01-14T22:57:06.877Z,101473.96
2018-01-14T22:59:35.221Z,101474.84
2018-01-14T23:02:03.537Z,101470.87
2018-01-14T23:04:31.877Z,101468.70
2018-01-14T23:07:00.201Z,101464.80
2018-01-14T23:09:28.542Z,101461.31
2018-01-14T23:11:56.883Z,101460.88
2018-01-14T23:14:25.213Z,101454.31
2018-01-14T23:16:53.533Z,101451.30
2018-01-14T23:19:21.869Z,101453.46
2018-01-14T23:21:50.193Z,101459.52
2018-01-14T23:24:18.536Z,101460.89
2018-01-14T23:26:46.853Z,101452.62
2018-01-14T23:29:15.192Z,101446.05
2018-01-14T23:31:43.508Z,101436.92
2018-01-14T23:34:11.853Z,101437.37
2018-01-14T23:36:40.178Z,101445.23
2018-01-14T23:39:08.517Z,101432.08
2018-01-14T23:41:36.857Z,101431.25
2018-01-14T23:44:05.215Z,101428.62
2018-01-14T23:46:33.521Z,101412.94
2018-01-14T23:49:01.861Z,101408.57
2018-01-14T23:51:30.177Z,101395.91
2018-01-14T23:53:58.523Z,101399.43
2018-01-14T23:56:26.841Z,101391.54
2018-01-14T23:58:55.176Z,101385.92
